sensor_id;sensor_type;location;lat;lon;timestamp;temperature;humidity
16136;DHT22;8173;48.354;9.248;2022-11-15T00:00:28;3.40;99.90
16136;DHT22;8173;48.354;9.248;2022-11-15T00:02:55;3.40;99.90
16136;DHT22;8173;48.354;9.248;2022-11-15T00:05:22;3.30;99.90
16136;DHT22;8173;48.354;9.248;2022-11-15T00:07:49;3.30;99.90
16136;DHT22;8173;48.354;9.248;2022-11-15T00:10:16;3.40;99.90
16136;DHT22;8173;48.354;9.248;2022-11-15T00:12:42;3.50;99.90
16136;DHT22;8173;48.354;9.248;2022-11-15T00:15:09;3.40;99.90
16136;DHT22;8173;48.354;9.248;2022-11-15T00:17:37;3.50;99.90
16136;DHT22;8173;48.354;9.248;2022-11-15T00:20:05;3.40;99.90
16136;DHT22;8173;48.354;9.248;2022-11-15T00:22:32;3.60;99.90
16136;DHT22;8173;48.354;9.248;2022-11-15T00:27:26;3.60;99.90
16136;DHT22;8173;48.354;9.248;2022-11-15T00:29:53;3.50;99.90
16136;DHT22;8173;48.354;9.248;2022-11-15T00:32:20;3.50;99.90
16136;DHT22;8173;48.354;9.248;2022-11-15T00:34:48;3.50;99.90
16136;DHT22;8173;48.354;9.248;2022-11-15T00:37:15;3.50;99.90
16136;DHT22;8173;48.354;9.248;2022-11-15T00:42:09;3.30;99.90
16136;DHT22;8173;48.354;9.248;2022-11-15T00:44:35;3.30;99.90
16136;DHT22;8173;48.354;9.248;2022-11-15T00:47:02;3.30;99.90
16136;DHT22;8173;48.354;9.248;2022-11-15T00:49:29;3.20;99.90
16136;DHT22;8173;48.354;9.248;2022-11-15T00:51:57;3.20;99.90
16136;DHT22;8173;48.354;9.248;2022-11-15T00:54:24;3.10;99.90
16136;DHT22;8173;48.354;9.248;2022-11-15T00:59:17;3.10;99.90
16136;DHT22;8173;48.354;9.248;2022-11-15T01:01:44;3.00;99.90
16136;DHT22;8173;48.354;9.248;2022-11-15T01:04:11;3.00;99.90
16136;DHT22;8173;48.354;9.248;2022-11-15T01:06:38;3.10;99.90
16136;DHT22;8173;48.354;9.248;2022-11-15T01:09:06;3.10;99.90
16136;DHT22;8173;48.354;9.248;2022-11-15T01:11:33;3.10;99.90
16136;DHT22;8173;48.354;9.248;2022-11-15T01:14:00;3.10;99.90
16136;DHT22;8173;48.354;9.248;2022-11-15T01:16:27;3.10;99.90
16136;DHT22;8173;48.354;9.248;2022-11-15T01:18:53;3.00;99.90
16136;DHT22;8173;48.354;9.248;2022-11-15T01:21:21;3.00;99.90
16136;DHT22;8173;48.354;9.248;2022-11-15T01:23:48;2.90;99.90
16136;DHT22;8173;48.354;9.248;2022-11-15T01:28:43;2.90;99.90
16136;DHT22;8173;48.354;9.248;2022-11-15T01:31:13;2.90;99.90
16136;DHT22;8173;48.354;9.248;2022-11-15T01:33:40;2.90;99.90
16136;DHT22;8173;48.354;9.248;2022-11-15T01:36:10;3.00;99.90
16136;DHT22;8173;48.354;9.248;2022-11-15T01:38:37;3.00;99.90
16136;DHT22;8173;48.354;9.248;2022-11-15T01:41:04;3.00;99.90
16136;DHT22;8173;48.354;9.248;2022-11-15T01:43:34;3.10;99.90
16136;DHT22;8173;48.354;9.248;2022-11-15T01:46:08;3.00;99.90
16136;DHT22;8173;48.354;9.248;2022-11-15T01:48:39;2.90;99.90
16136;DHT22;8173;48.354;9.248;2022-11-15T01:51:08;2.80;99.90
16136;DHT22;8173;48.354;9.248;2022-11-15T01:53:38;2.80;99.90
16136;DHT22;8173;48.354;9.248;2022-11-15T01:56:08;2.80;99.90
16136;DHT22;8173;48.354;9.248;2022-11-15T01:58:37;2.80;99.90
16136;DHT22;8173;48.354;9.248;2022-11-15T02:01:05;2.70;99.90
16136;DHT22;8173;48.354;9.248;2022-11-15T02:03:36;2.70;99.90
16136;DHT22;8173;48.354;9.248;2022-11-15T02:06:05;2.80;99.90
16136;DHT22;8173;48.354;9.248;2022-11-15T02:08:32;3.00;99.90
16136;DHT22;8173;48.354;9.248;2022-11-15T02:10:58;2.80;99.90
16136;DHT22;8173;48.354;9.248;2022-11-15T02:13:25;2.90;99.90
16136;DHT22;8173;48.354;9.248;2022-11-15T02:15:59;2.90;99.90
16136;DHT22;8173;48.354;9.248;2022-11-15T02:18:32;2.80;99.90
16136;DHT22;8173;48.354;9.248;2022-11-15T02:21:17;2.50;99.90
16136;DHT22;8173;48.354;9.248;2022-11-15T02:30:20;2.20;99.90
16136;DHT22;8173;48.354;9.248;2022-11-15T02:32:51;2.10;99.90
16136;DHT22;8173;48.354;9.248;2022-11-15T02:35:26;2.10;99.90
16136;DHT22;8173;48.354;9.248;2022-11-15T02:37:57;2.10;99.90
16136;DHT22;8173;48.354;9.248;2022-11-15T02:40:33;2.10;99.90
16136;DHT22;8173;48.354;9.248;2022-11-15T02:43:07;2.20;99.90
16136;DHT22;8173;48.354;9.248;2022-11-15T02:45:58;2.30;99.90
16136;DHT22;8173;48.354;9.248;2022-11-15T02:48:28;2.40;99.90
16136;DHT22;8173;48.354;9.248;2022-11-15T02:50:56;2.40;99.90
16136;DHT22;8173;48.354;9.248;2022-11-15T02:53:24;2.40;99.90
16136;DHT22;8173;48.354;9.248;2022-11-15T02:55:52;2.40;99.90
16136;DHT22;8173;48.354;9.248;2022-11-15T02:58:36;2.20;99.90
16136;DHT22;8173;48.354;9.248;2022-11-15T03:01:13;2.00;99.90
16136;DHT22;8173;48.354;9.248;2022-11-15T03:03:52;2.00;99.90
16136;DHT22;8173;48.354;9.248;2022-11-15T03:06:29;2.50;99.90
16136;DHT22;8173;48.354;9.248;2022-11-15T03:09:04;2.00;99.90
16136;DHT22;8173;48.354;9.248;2022-11-15T03:11:34;2.00;99.90
16136;DHT22;8173;48.354;9.248;2022-11-15T03:14:12;1.80;99.90
16136;DHT22;8173;48.354;9.248;2022-11-15T03:16:45;1.70;99.90
16136;DHT22;8173;48.354;9.248;2022-11-15T03:19:19;1.70;99.90
16136;DHT22;8173;48.354;9.248;2022-11-15T03:21:49;1.70;99.90
16136;DHT22;8173;48.354;9.248;2022-11-15T03:24:19;1.70;99.90
16136;DHT22;8173;48.354;9.248;2022-11-15T03:26:48;1.60;99.90
16136;DHT22;8173;48.354;9.248;2022-11-15T03:29:19;1.70;99.90
16136;DHT22;8173;48.354;9.248;2022-11-15T03:31:53;1.80;99.90
16136;DHT22;8173;48.354;9.248;2022-11-15T03:34:26;1.90;99.90
16136;DHT22;8173;48.354;9.248;2022-11-15T03:36:54;1.90;99.90
16136;DHT22;8173;48.354;9.248;2022-11-15T03:41:56;2.00;99.90
16136;DHT22;8173;48.354;9.248;2022-11-15T03:44:34;1.90;99.90
16136;DHT22;8173;48.354;9.248;2022-11-15T03:47:08;1.90;99.90
16136;DHT22;8173;48.354;9.248;2022-11-15T03:49:40;1.90;99.90
16136;DHT22;8173;48.354;9.248;2022-11-15T03:52:10;1.90;99.90
16136;DHT22;8173;48.354;9.248;2022-11-15T03:54:37;1.90;99.90
16136;DHT22;8173;48.354;9.248;2022-11-15T03:57:13;1.90;99.90
16136;DHT22;8173;48.354;9.248;2022-11-15T03:59:40;1.80;99.90
16136;DHT22;8173;48.354;9.248;2022-11-15T04:02:08;1.80;99.90
16136;DHT22;8173;48.354;9.248;2022-11-15T04:04:35;1.80;99.90
16136;DHT22;8173;48.354;9.248;2022-11-15T04:07:01;1.70;99.90
16136;DHT22;8173;48.354;9.248;2022-11-15T04:09:28;1.60;99.90
16136;DHT22;8173;48.354;9.248;2022-11-15T04:11:55;1.40;99.90
16136;DHT22;8173;48.354;9.248;2022-11-15T04:14:22;1.60;99.90
16136;DHT22;8173;48.354;9.248;2022-11-15T04:16:48;1.70;99.90
16136;DHT22;8173;48.354;9.248;2022-11-15T04:19:16;1.80;99.90
16136;DHT22;8173;48.354;9.248;2022-11-15T04:27:15;2.00;99.90
16136;DHT22;8173;48.354;9.248;2022-11-15T04:29:42;1.90;99.90
16136;DHT22;8173;48.354;9.248;2022-11-15T04:32:08;1.90;99.90
16136;DHT22;8173;48.354;9.248;2022-11-15T04:37:04;2.00;99.90
16136;DHT22;8173;48.354;9.248;2022-11-15T04:42:08;1.90;99.90
16136;DHT22;8173;48.354;9.248;2022-11-15T04:44:35;1.90;99.90
16136;DHT22;8173;48.354;9.248;2022-11-15T04:47:02;2.10;99.90
16136;DHT22;8173;48.354;9.248;2022-11-15T04:49:29;2.00;99.90
16136;DHT22;8173;48.354;9.248;2022-11-15T04:51:57;2.00;99.90
16136;DHT22;8173;48.354;9.248;2022-11-15T04:56:51;2.00;99.90
16136;DHT22;8173;48.354;9.248;2022-11-15T04:59:17;2.00;99.90
16136;DHT22;8173;48.354;9.248;2022-11-15T05:01:44;2.00;99.90
16136;DHT22;8173;48.354;9.248;2022-11-15T05:04:11;2.00;99.90
16136;DHT22;8173;48.354;9.248;2022-11-15T05:06:47;2.00;99.90
16136;DHT22;8173;48.354;9.248;2022-11-15T05:09:16;1.90;99.90
16136;DHT22;8173;48.354;9.248;2022-11-15T05:11:44;1.80;99.90
16136;DHT22;8173;48.354;9.248;2022-11-15T05:14:11;1.80;99.90
16136;DHT22;8173;48.354;9.248;2022-11-15T05:16:38;1.80;99.90
16136;DHT22;8173;48.354;9.248;2022-11-15T05:19:05;1.90;99.90
16136;DHT22;8173;48.354;9.248;2022-11-15T05:21:33;1.90;99.90
16136;DHT22;8173;48.354;9.248;2022-11-15T05:24:00;2.00;99.90
16136;DHT22;8173;48.354;9.248;2022-11-15T05:26:28;1.90;99.90
16136;DHT22;8173;48.354;9.248;2022-11-15T05:28:56;1.80;99.90
16136;DHT22;8173;48.354;9.248;2022-11-15T05:31:24;1.90;99.90
16136;DHT22;8173;48.354;9.248;2022-11-15T05:33:52;1.90;99.90
16136;DHT22;8173;48.354;9.248;2022-11-15T05:36:25;1.90;99.90
16136;DHT22;8173;48.354;9.248;2022-11-15T05:41:22;1.90;99.90
16136;DHT22;8173;48.354;9.248;2022-11-15T05:43:53;1.90;99.90
16136;DHT22;8173;48.354;9.248;2022-11-15T05:46:20;2.00;99.90
16136;DHT22;8173;48.354;9.248;2022-11-15T05:48:50;2.10;99.90
16136;DHT22;8173;48.354;9.248;2022-11-15T05:51:19;2.20;99.90
16136;DHT22;8173;48.354;9.248;2022-11-15T05:53:47;2.20;99.90
16136;DHT22;8173;48.354;9.248;2022-11-15T05:56:15;2.30;99.90
16136;DHT22;8173;48.354;9.248;2022-11-15T05:58:42;2.20;99.90
16136;DHT22;8173;48.354;9.248;2022-11-15T06:01:10;2.20;99.90
16136;DHT22;8173;48.354;9.248;2022-11-15T06:03:37;2.20;99.90
16136;DHT22;8173;48.354;9.248;2022-11-15T06:06:04;2.10;99.90
16136;DHT22;8173;48.354;9.248;2022-11-15T06:08:31;2.10;99.90
16136;DHT22;8173;48.354;9.248;2022-11-15T06:11:03;2.00;99.90
16136;DHT22;8173;48.354;9.248;2022-11-15T06:13:30;2.00;99.90
16136;DHT22;8173;48.354;9.248;2022-11-15T06:15:57;2.00;99.90
16136;DHT22;8173;48.354;9.248;2022-11-15T06:18:25;2.00;99.90
16136;DHT22;8173;48.354;9.248;2022-11-15T06:20:52;2.20;99.90
16136;DHT22;8173;48.354;9.248;2022-11-15T06:23:19;2.20;99.90
16136;DHT22;8173;48.354;9.248;2022-11-15T06:25:46;2.30;99.90
16136;DHT22;8173;48.354;9.248;2022-11-15T06:28:12;2.30;99.90
16136;DHT22;8173;48.354;9.248;2022-11-15T06:30:39;2.20;99.90
16136;DHT22;8173;48.354;9.248;2022-11-15T06:33:06;2.20;99.90
16136;DHT22;8173;48.354;9.248;2022-11-15T06:35:36;2.10;99.90
16136;DHT22;8173;48.354;9.248;2022-11-15T06:38:04;2.00;99.90
16136;DHT22;8173;48.354;9.248;2022-11-15T06:40:34;2.00;99.90
16136;DHT22;8173;48.354;9.248;2022-11-15T06:43:02;1.90;99.90
16136;DHT22;8173;48.354;9.248;2022-11-15T06:45:29;1.90;99.90
16136;DHT22;8173;48.354;9.248;2022-11-15T06:47:56;2.00;99.90
16136;DHT22;8173;48.354;9.248;2022-11-15T06:50:23;1.90;99.90
16136;DHT22;8173;48.354;9.248;2022-11-15T06:52:51;1.90;99.90
16136;DHT22;8173;48.354;9.248;2022-11-15T06:55:18;2.00;99.90
16136;DHT22;8173;48.354;9.248;2022-11-15T07:00:16;2.40;99.90
16136;DHT22;8173;48.354;9.248;2022-11-15T07:02:45;2.60;99.90
16136;DHT22;8173;48.354;9.248;2022-11-15T07:05:12;2.70;99.90
16136;DHT22;8173;48.354;9.248;2022-11-15T07:07:39;2.90;99.90
16136;DHT22;8173;48.354;9.248;2022-11-15T07:10:08;3.10;99.90
16136;DHT22;8173;48.354;9.248;2022-11-15T07:12:35;3.10;99.90
16136;DHT22;8173;48.354;9.248;2022-11-15T07:15:03;3.10;99.90
16136;DHT22;8173;48.354;9.248;2022-11-15T07:17:30;3.60;99.90
16136;DHT22;8173;48.354;9.248;2022-11-15T07:19:56;4.30;99.90
16136;DHT22;8173;48.354;9.248;2022-11-15T07:22:23;4.70;99.90
16136;DHT22;8173;48.354;9.248;2022-11-15T07:24:50;5.50;99.90
16136;DHT22;8173;48.354;9.248;2022-11-15T07:27:18;5.20;99.90
16136;DHT22;8173;48.354;9.248;2022-11-15T07:32:12;5.90;99.90
16136;DHT22;8173;48.354;9.248;2022-11-15T07:34:38;6.30;99.90
16136;DHT22;8173;48.354;9.248;2022-11-15T07:37:05;6.80;99.90
16136;DHT22;8173;48.354;9.248;2022-11-15T07:39:32;6.30;99.90
16136;DHT22;8173;48.354;9.248;2022-11-15T07:41:59;5.90;99.90
16136;DHT22;8173;48.354;9.248;2022-11-15T07:44:41;5.50;99.90
16136;DHT22;8173;48.354;9.248;2022-11-15T07:47:07;5.10;99.90
16136;DHT22;8173;48.354;9.248;2022-11-15T07:49:34;5.10;99.90
16136;DHT22;8173;48.354;9.248;2022-11-15T07:52:01;5.20;99.90
16136;DHT22;8173;48.354;9.248;2022-11-15T07:54:28;5.30;99.90
16136;DHT22;8173;48.354;9.248;2022-11-15T07:56:54;5.40;99.90
16136;DHT22;8173;48.354;9.248;2022-11-15T07:59:21;5.50;99.90
16136;DHT22;8173;48.354;9.248;2022-11-15T08:04:16;5.60;99.90
16136;DHT22;8173;48.354;9.248;2022-11-15T08:06:43;5.70;99.90
16136;DHT22;8173;48.354;9.248;2022-11-15T08:09:10;7.20;99.90
16136;DHT22;8173;48.354;9.248;2022-11-15T08:11:36;5.80;99.90
16136;DHT22;8173;48.354;9.248;2022-11-15T08:14:03;5.80;99.90
16136;DHT22;8173;48.354;9.248;2022-11-15T08:16:30;5.80;99.90
16136;DHT22;8173;48.354;9.248;2022-11-15T08:18:58;5.90;99.90
16136;DHT22;8173;48.354;9.248;2022-11-15T08:21:25;6.00;99.90
16136;DHT22;8173;48.354;9.248;2022-11-15T08:23:52;6.50;99.90
16136;DHT22;8173;48.354;9.248;2022-11-15T08:26:19;6.70;99.90
16136;DHT22;8173;48.354;9.248;2022-11-15T08:28:45;6.40;99.90
16136;DHT22;8173;48.354;9.248;2022-11-15T08:31:14;6.90;99.90
16136;DHT22;8173;48.354;9.248;2022-11-15T08:33:43;6.60;99.90
16136;DHT22;8173;48.354;9.248;2022-11-15T08:36:14;6.70;99.90
16136;DHT22;8173;48.354;9.248;2022-11-15T08:38:41;6.70;99.90
16136;DHT22;8173;48.354;9.248;2022-11-15T08:41:12;7.00;99.90
16136;DHT22;8173;48.354;9.248;2022-11-15T08:43:40;7.00;99.90
16136;DHT22;8173;48.354;9.248;2022-11-15T08:46:10;7.20;99.90
16136;DHT22;8173;48.354;9.248;2022-11-15T08:48:38;7.40;99.90
16136;DHT22;8173;48.354;9.248;2022-11-15T08:51:05;7.90;99.90
16136;DHT22;8173;48.354;9.248;2022-11-15T08:53:33;8.50;99.90
16136;DHT22;8173;48.354;9.248;2022-11-15T08:56:00;9.40;99.90
16136;DHT22;8173;48.354;9.248;2022-11-15T08:58:28;10.00;99.90
16136;DHT22;8173;48.354;9.248;2022-11-15T09:00:55;10.40;99.90
16136;DHT22;8173;48.354;9.248;2022-11-15T09:16:06;9.50;99.90
16136;DHT22;8173;48.354;9.248;2022-11-15T09:18:33;9.10;99.90
16136;DHT22;8173;48.354;9.248;2022-11-15T09:20:59;8.80;99.90
16136;DHT22;8173;48.354;9.248;2022-11-15T09:23:28;8.80;99.90
16136;DHT22;8173;48.354;9.248;2022-11-15T09:25:59;8.70;99.90
16136;DHT22;8173;48.354;9.248;2022-11-15T09:28:26;8.70;99.90
16136;DHT22;8173;48.354;9.248;2022-11-15T09:30:56;8.80;99.90
16136;DHT22;8173;48.354;9.248;2022-11-15T09:33:25;8.90;99.90
16136;DHT22;8173;48.354;9.248;2022-11-15T09:35:52;9.00;99.90
16136;DHT22;8173;48.354;9.248;2022-11-15T09:38:19;8.90;99.90
16136;DHT22;8173;48.354;9.248;2022-11-15T09:40:50;8.90;99.90
16136;DHT22;8173;48.354;9.248;2022-11-15T09:43:31;9.00;99.90
16136;DHT22;8173;48.354;9.248;2022-11-15T09:46:08;9.20;99.90
16136;DHT22;8173;48.354;9.248;2022-11-15T09:48:49;9.50;99.90
16136;DHT22;8173;48.354;9.248;2022-11-15T09:51:24;9.90;99.90
16136;DHT22;8173;48.354;9.248;2022-11-15T09:54:01;10.10;99.90
16136;DHT22;8173;48.354;9.248;2022-11-15T09:56:30;10.10;99.90
16136;DHT22;8173;48.354;9.248;2022-11-15T09:59:05;10.10;99.90
16136;DHT22;8173;48.354;9.248;2022-11-15T10:01:40;10.60;99.90
16136;DHT22;8173;48.354;9.248;2022-11-15T10:04:09;10.80;99.90
16136;DHT22;8173;48.354;9.248;2022-11-15T10:06:42;10.80;99.90
16136;DHT22;8173;48.354;9.248;2022-11-15T10:09:15;11.20;99.90
16136;DHT22;8173;48.354;9.248;2022-11-15T10:11:43;11.70;99.90
16136;DHT22;8173;48.354;9.248;2022-11-15T10:14:13;12.20;99.90
16136;DHT22;8173;48.354;9.248;2022-11-15T10:17:13;12.60;99.90
16136;DHT22;8173;48.354;9.248;2022-11-15T10:19:50;12.60;99.90
16136;DHT22;8173;48.354;9.248;2022-11-15T10:22:25;12.30;99.90
16136;DHT22;8173;48.354;9.248;2022-11-15T10:25:06;12.40;99.90
16136;DHT22;8173;48.354;9.248;2022-11-15T10:27:37;12.30;99.90
16136;DHT22;8173;48.354;9.248;2022-11-15T10:30:11;12.20;99.90
16136;DHT22;8173;48.354;9.248;2022-11-15T10:32:40;12.20;99.90
16136;DHT22;8173;48.354;9.248;2022-11-15T10:35:19;12.20;99.90
16136;DHT22;8173;48.354;9.248;2022-11-15T10:37:46;12.10;99.90
16136;DHT22;8173;48.354;9.248;2022-11-15T10:40:19;12.00;99.90
16136;DHT22;8173;48.354;9.248;2022-11-15T10:42:46;12.10;99.90
16136;DHT22;8173;48.354;9.248;2022-11-15T10:45:24;12.10;99.90
16136;DHT22;8173;48.354;9.248;2022-11-15T10:47:51;12.10;99.90
16136;DHT22;8173;48.354;9.248;2022-11-15T10:50:31;12.10;99.90
16136;DHT22;8173;48.354;9.248;2022-11-15T10:52:58;12.10;99.90
16136;DHT22;8173;48.354;9.248;2022-11-15T10:55:29;12.10;99.90
16136;DHT22;8173;48.354;9.248;2022-11-15T10:58:01;12.00;99.90
16136;DHT22;8173;48.354;9.248;2022-11-15T11:00:32;12.10;99.90
16136;DHT22;8173;48.354;9.248;2022-11-15T11:03:01;12.20;99.90
16136;DHT22;8173;48.354;9.248;2022-11-15T11:05:31;12.10;99.90
16136;DHT22;8173;48.354;9.248;2022-11-15T11:07:59;12.00;99.90
16136;DHT22;8173;48.354;9.248;2022-11-15T11:10:27;12.00;99.90
16136;DHT22;8173;48.354;9.248;2022-11-15T11:12:54;11.80;99.90
16136;DHT22;8173;48.354;9.248;2022-11-15T11:15:24;11.80;99.90
16136;DHT22;8173;48.354;9.248;2022-11-15T11:18:02;11.70;99.90
16136;DHT22;8173;48.354;9.248;2022-11-15T11:20:38;11.70;99.90
16136;DHT22;8173;48.354;9.248;2022-11-15T11:23:30;11.70;99.90
16136;DHT22;8173;48.354;9.248;2022-11-15T11:26:11;11.80;99.90
16136;DHT22;8173;48.354;9.248;2022-11-15T11:28:45;11.90;99.90
16136;DHT22;8173;48.354;9.248;2022-11-15T11:31:24;11.90;99.90
16136;DHT22;8173;48.354;9.248;2022-11-15T11:34:02;12.00;99.90
16136;DHT22;8173;48.354;9.248;2022-11-15T11:36:40;12.00;99.90
16136;DHT22;8173;48.354;9.248;2022-11-15T11:39:20;12.00;99.90
16136;DHT22;8173;48.354;9.248;2022-11-15T11:41:57;12.00;99.90
16136;DHT22;8173;48.354;9.248;2022-11-15T11:44:34;12.00;99.90
16136;DHT22;8173;48.354;9.248;2022-11-15T11:47:09;12.00;99.90
16136;DHT22;8173;48.354;9.248;2022-11-15T11:49:41;12.10;99.90
16136;DHT22;8173;48.354;9.248;2022-11-15T11:52:12;12.10;99.90
16136;DHT22;8173;48.354;9.248;2022-11-15T11:54:49;12.10;99.90
16136;DHT22;8173;48.354;9.248;2022-11-15T11:57:28;12.10;99.90
16136;DHT22;8173;48.354;9.248;2022-11-15T12:00:00;12.20;99.90
16136;DHT22;8173;48.354;9.248;2022-11-15T12:02:30;12.20;99.90
16136;DHT22;8173;48.354;9.248;2022-11-15T12:05:03;12.20;99.90
16136;DHT22;8173;48.354;9.248;2022-11-15T12:07:34;12.30;99.90
16136;DHT22;8173;48.354;9.248;2022-11-15T12:10:05;12.30;99.90
16136;DHT22;8173;48.354;9.248;2022-11-15T12:12:41;12.30;99.90
16136;DHT22;8173;48.354;9.248;2022-11-15T12:15:13;12.30;99.90
16136;DHT22;8173;48.354;9.248;2022-11-15T12:17:42;12.20;99.90
16136;DHT22;8173;48.354;9.248;2022-11-15T12:20:16;12.10;99.90
16136;DHT22;8173;48.354;9.248;2022-11-15T12:22:51;11.90;99.90
16136;DHT22;8173;48.354;9.248;2022-11-15T12:25:21;11.90;99.90
16136;DHT22;8173;48.354;9.248;2022-11-15T12:27:52;11.90;99.90
16136;DHT22;8173;48.354;9.248;2022-11-15T12:30:21;11.90;99.90
16136;DHT22;8173;48.354;9.248;2022-11-15T12:32:55;11.90;99.90
16136;DHT22;8173;48.354;9.248;2022-11-15T12:35:27;11.90;99.90
16136;DHT22;8173;48.354;9.248;2022-11-15T12:37:56;11.90;99.90
16136;DHT22;8173;48.354;9.248;2022-11-15T12:40:34;11.90;99.90
16136;DHT22;8173;48.354;9.248;2022-11-15T12:46:12;12.00;99.90
16136;DHT22;8173;48.354;9.248;2022-11-15T12:48:58;12.10;99.90
16136;DHT22;8173;48.354;9.248;2022-11-15T12:54:53;12.20;99.90
16136;DHT22;8173;48.354;9.248;2022-11-15T12:57:33;12.20;99.90
16136;DHT22;8173;48.354;9.248;2022-11-15T13:00:01;12.20;99.90
16136;DHT22;8173;48.354;9.248;2022-11-15T13:02:30;12.10;99.90
16136;DHT22;8173;48.354;9.248;2022-11-15T13:07:58;12.00;99.90
16136;DHT22;8173;48.354;9.248;2022-11-15T13:10:31;11.90;99.90
16136;DHT22;8173;48.354;9.248;2022-11-15T13:13:00;11.60;99.90
16136;DHT22;8173;48.354;9.248;2022-11-15T13:15:58;11.40;99.90
16136;DHT22;8173;48.354;9.248;2022-11-15T13:18:35;11.40;99.90
16136;DHT22;8173;48.354;9.248;2022-11-15T13:21:04;11.40;99.90
16136;DHT22;8173;48.354;9.248;2022-11-15T13:23:54;11.40;99.90
16136;DHT22;8173;48.354;9.248;2022-11-15T13:26:23;11.40;99.90
16136;DHT22;8173;48.354;9.248;2022-11-15T13:28:51;11.40;99.90
16136;DHT22;8173;48.354;9.248;2022-11-15T13:31:34;11.40;99.90
16136;DHT22;8173;48.354;9.248;2022-11-15T13:34:14;11.30;99.90
16136;DHT22;8173;48.354;9.248;2022-11-15T13:36:42;11.30;99.90
16136;DHT22;8173;48.354;9.248;2022-11-15T13:39:14;11.40;99.90
16136;DHT22;8173;48.354;9.248;2022-11-15T13:41:51;11.30;99.90
16136;DHT22;8173;48.354;9.248;2022-11-15T13:44:20;11.20;99.90
16136;DHT22;8173;48.354;9.248;2022-11-15T13:46:47;11.30;99.90
16136;DHT22;8173;48.354;9.248;2022-11-15T13:49:14;11.20;99.90
16136;DHT22;8173;48.354;9.248;2022-11-15T13:51:44;11.20;99.90
16136;DHT22;8173;48.354;9.248;2022-11-15T13:54:17;11.20;99.90
16136;DHT22;8173;48.354;9.248;2022-11-15T13:56:48;11.00;99.90
16136;DHT22;8173;48.354;9.248;2022-11-15T13:59:24;11.10;99.90
16136;DHT22;8173;48.354;9.248;2022-11-15T14:01:51;11.10;99.90
16136;DHT22;8173;48.354;9.248;2022-11-15T14:04:20;11.10;99.90
16136;DHT22;8173;48.354;9.248;2022-11-15T14:06:50;11.10;99.90
16136;DHT22;8173;48.354;9.248;2022-11-15T14:09:34;11.10;99.90
16136;DHT22;8173;48.354;9.248;2022-11-15T14:12:02;11.20;99.90
16136;DHT22;8173;48.354;9.248;2022-11-15T14:14:30;11.20;99.90
16136;DHT22;8173;48.354;9.248;2022-11-15T14:16:59;11.20;99.90
16136;DHT22;8173;48.354;9.248;2022-11-15T14:19:38;11.20;99.90
16136;DHT22;8173;48.354;9.248;2022-11-15T14:22:16;11.20;99.90
16136;DHT22;8173;48.354;9.248;2022-11-15T14:24:50;11.10;99.90
16136;DHT22;8173;48.354;9.248;2022-11-15T14:27:31;11.00;99.90
16136;DHT22;8173;48.354;9.248;2022-11-15T14:29:59;11.10;99.90
16136;DHT22;8173;48.354;9.248;2022-11-15T14:32:27;11.00;99.90
16136;DHT22;8173;48.354;9.248;2022-11-15T14:34:56;11.00;99.90
16136;DHT22;8173;48.354;9.248;2022-11-15T14:37:24;10.90;99.90
16136;DHT22;8173;48.354;9.248;2022-11-15T14:39:52;10.90;99.90
16136;DHT22;8173;48.354;9.248;2022-11-15T14:42:20;10.90;99.90
16136;DHT22;8173;48.354;9.248;2022-11-15T14:44:47;10.80;99.90
16136;DHT22;8173;48.354;9.248;2022-11-15T14:47:15;10.80;99.90
16136;DHT22;8173;48.354;9.248;2022-11-15T14:49:42;10.80;99.90
16136;DHT22;8173;48.354;9.248;2022-11-15T14:52:24;10.70;99.90
16136;DHT22;8173;48.354;9.248;2022-11-15T14:54:53;10.70;99.90
16136;DHT22;8173;48.354;9.248;2022-11-15T14:57:20;10.60;99.90
16136;DHT22;8173;48.354;9.248;2022-11-15T14:59:46;10.70;99.90
16136;DHT22;8173;48.354;9.248;2022-11-15T15:02:18;10.50;99.90
16136;DHT22;8173;48.354;9.248;2022-11-15T15:04:46;10.50;99.90
16136;DHT22;8173;48.354;9.248;2022-11-15T15:07:13;10.40;99.90
16136;DHT22;8173;48.354;9.248;2022-11-15T15:09:40;10.40;99.90
16136;DHT22;8173;48.354;9.248;2022-11-15T15:12:14;10.40;99.90
16136;DHT22;8173;48.354;9.248;2022-11-15T15:14:42;10.50;99.90
16136;DHT22;8173;48.354;9.248;2022-11-15T15:17:08;10.40;99.90
16136;DHT22;8173;48.354;9.248;2022-11-15T15:19:37;10.30;99.90
16136;DHT22;8173;48.354;9.248;2022-11-15T15:22:03;10.20;99.90
16136;DHT22;8173;48.354;9.248;2022-11-15T15:24:31;10.00;99.90
16136;DHT22;8173;48.354;9.248;2022-11-15T15:26:57;10.00;99.90
16136;DHT22;8173;48.354;9.248;2022-11-15T15:29:24;9.90;99.90
16136;DHT22;8173;48.354;9.248;2022-11-15T15:31:51;10.00;99.90
16136;DHT22;8173;48.354;9.248;2022-11-15T15:34:18;9.80;99.90
16136;DHT22;8173;48.354;9.248;2022-11-15T15:36:46;9.80;99.90
16136;DHT22;8173;48.354;9.248;2022-11-15T15:39:12;9.70;99.90
16136;DHT22;8173;48.354;9.248;2022-11-15T15:41:39;9.70;99.90
16136;DHT22;8173;48.354;9.248;2022-11-15T15:44:06;9.50;99.90
16136;DHT22;8173;48.354;9.248;2022-11-15T15:46:34;9.50;99.90
16136;DHT22;8173;48.354;9.248;2022-11-15T15:49:01;9.40;99.90
16136;DHT22;8173;48.354;9.248;2022-11-15T15:51:27;9.40;99.90
16136;DHT22;8173;48.354;9.248;2022-11-15T15:53:55;9.30;99.90
16136;DHT22;8173;48.354;9.248;2022-11-15T15:56:23;9.30;99.90
16136;DHT22;8173;48.354;9.248;2022-11-15T15:58:50;9.30;99.90
16136;DHT22;8173;48.354;9.248;2022-11-15T16:01:18;9.30;99.90
16136;DHT22;8173;48.354;9.248;2022-11-15T16:03:45;9.20;99.90
16136;DHT22;8173;48.354;9.248;2022-11-15T16:06:33;9.30;99.90
16136;DHT22;8173;48.354;9.248;2022-11-15T16:09:02;9.20;99.90
16136;DHT22;8173;48.354;9.248;2022-11-15T16:11:29;9.20;99.90
16136;DHT22;8173;48.354;9.248;2022-11-15T16:13:56;9.20;99.90
16136;DHT22;8173;48.354;9.248;2022-11-15T16:16:23;9.20;99.90
16136;DHT22;8173;48.354;9.248;2022-11-15T16:18:49;9.20;99.90
16136;DHT22;8173;48.354;9.248;2022-11-15T16:21:16;9.20;99.90
16136;DHT22;8173;48.354;9.248;2022-11-15T16:23:43;9.10;99.90
16136;DHT22;8173;48.354;9.248;2022-11-15T16:26:19;9.20;99.90
16136;DHT22;8173;48.354;9.248;2022-11-15T16:28:46;9.10;99.90
16136;DHT22;8173;48.354;9.248;2022-11-15T16:31:13;9.10;99.90
16136;DHT22;8173;48.354;9.248;2022-11-15T16:33:42;9.10;99.90
16136;DHT22;8173;48.354;9.248;2022-11-15T16:36:19;9.10;99.90
16136;DHT22;8173;48.354;9.248;2022-11-15T16:38:46;9.10;99.90
16136;DHT22;8173;48.354;9.248;2022-11-15T16:41:14;9.00;99.90
16136;DHT22;8173;48.354;9.248;2022-11-15T16:43:43;9.00;99.90
16136;DHT22;8173;48.354;9.248;2022-11-15T16:46:14;9.00;99.90
16136;DHT22;8173;48.354;9.248;2022-11-15T16:48:41;8.90;99.90
16136;DHT22;8173;48.354;9.248;2022-11-15T16:51:08;8.80;99.90
16136;DHT22;8173;48.354;9.248;2022-11-15T16:53:35;8.80;99.90
16136;DHT22;8173;48.354;9.248;2022-11-15T16:56:02;8.60;99.90
16136;DHT22;8173;48.354;9.248;2022-11-15T16:58:31;8.70;99.90
16136;DHT22;8173;48.354;9.248;2022-11-15T17:00:58;7.40;99.90
16136;DHT22;8173;48.354;9.248;2022-11-15T17:03:24;8.60;99.90
16136;DHT22;8173;48.354;9.248;2022-11-15T17:05:51;8.60;99.90
16136;DHT22;8173;48.354;9.248;2022-11-15T17:08:18;8.50;99.90
16136;DHT22;8173;48.354;9.248;2022-11-15T17:10:46;8.50;99.90
16136;DHT22;8173;48.354;9.248;2022-11-15T17:13:13;8.40;99.90
16136;DHT22;8173;48.354;9.248;2022-11-15T17:15:41;8.40;99.90
16136;DHT22;8173;48.354;9.248;2022-11-15T17:18:10;8.40;99.90